Time;durP1;ratioP1;P1;durP2;ratioP2;P2;SDS_P1;SDS_P2;PMS_P1;PMS_P2;Temp;Humidity;BMP_temperature;BMP_pressure;BME280_temperature;BME280_humidity;BME280_pressure;Samples;Min_cycle;Max_cycle;Signal;HPM_P1;HPM_P2
2023/04/17 00:00:42;;;;;;;8.50;3.00;;;7.70;99.90;;;;;;5112003;28;20040;-66
2023/04/17 00:03:11;;;;;;;3.92;2.22;;;7.70;99.90;;;;;;5113885;28;20039;-65
2023/04/17 00:05:37;;;;;;;7.18;2.70;;;7.70;99.90;;;;;;5112136;28;20043;-65
2023/04/17 00:08:03;;;;;;;4.68;2.05;;;7.70;99.90;;;;;;5113874;28;20130;-66
2023/04/17 00:10:29;;;;;;;3.97;1.73;;;7.70;99.90;;;;;;5113560;28;20548;-66
2023/04/17 00:13:07;;;;;;;9.27;2.40;;;7.70;99.90;;;;;;5094696;28;20043;-65
2023/04/17 00:15:32;;;;;;;7.20;2.58;;;7.70;99.90;;;;;;5113534;28;20519;-65
2023/04/17 00:17:58;;;;;;;8.63;3.15;;;7.70;99.90;;;;;;5112208;28;20075;-66
2023/04/17 00:20:24;;;;;;;8.23;2.85;;;7.70;99.90;;;;;;5111644;28;20036;-65
2023/04/17 00:22:50;;;;;;;10.40;3.42;;;7.70;99.90;;;;;;5113364;27;20122;-66
2023/04/17 00:25:15;;;;;;;6.72;2.65;;;7.70;99.90;;;;;;5111923;28;20043;-65
2023/04/17 00:27:41;;;;;;;6.28;2.47;;;7.70;99.90;;;;;;5112812;28;20040;-66
2023/04/17 00:30:08;;;;;;;4.53;2.13;;;7.70;99.90;;;;;;5112001;28;20040;-65
2023/04/17 00:32:34;;;;;;;9.73;3.03;;;7.70;99.90;;;;;;5111970;28;20040;-66
2023/04/17 00:35:00;;;;;;;5.20;2.45;;;7.70;99.90;;;;;;5111369;28;20119;-66
2023/04/17 00:37:26;;;;;;;6.28;2.75;;;7.70;99.90;;;;;;5111752;28;20119;-66
2023/04/17 00:39:51;;;;;;;8.55;2.67;;;7.70;99.90;;;;;;5111647;28;20074;-65
2023/04/17 00:42:17;;;;;;;8.43;2.72;;;7.70;99.90;;;;;;5111117;28;20036;-66
2023/04/17 00:44:43;;;;;;;5.10;2.38;;;7.70;99.90;;;;;;5111706;28;20040;-65
2023/04/17 00:47:09;;;;;;;9.20;2.40;;;7.70;99.90;;;;;;5113069;28;20070;-66
2023/04/17 00:49:35;;;;;;;9.02;3.85;;;7.70;99.90;;;;;;5112401;28;20039;-66
2023/04/17 00:52:01;;;;;;;7.93;3.33;;;7.70;99.90;;;;;;5094537;28;20069;-66
2023/04/17 00:54:28;;;;;;;6.32;3.25;;;7.70;99.90;;;;;;5094813;28;20048;-66
2023/04/17 00:56:55;;;;;;;5.82;3.13;;;7.70;99.90;;;;;;5111000;28;20051;-66
2023/04/17 00:59:22;;;;;;;6.72;2.58;;;7.70;99.90;;;;;;5094946;28;20394;-66
2023/04/17 01:01:48;;;;;;;7.00;2.60;;;7.70;99.90;;;;;;5112008;28;20043;-66
2023/04/17 01:04:14;;;;;;;8.80;3.10;;;7.70;99.90;;;;;;5112526;28;20047;-66
2023/04/17 01:06:40;;;;;;;5.28;2.55;;;7.70;99.90;;;;;;5111606;28;20071;-66
2023/04/17 01:09:07;;;;;;;6.78;3.15;;;7.70;99.90;;;;;;5093566;28;20055;-66
2023/04/17 01:11:33;;;;;;;9.02;2.95;;;7.70;99.90;;;;;;5111407;28;20038;-66
2023/04/17 01:13:59;;;;;;;6.20;2.45;;;7.70;99.90;;;;;;5112529;28;20505;-66
2023/04/17 01:16:25;;;;;;;8.00;2.25;;;7.70;99.90;;;;;;5110591;28;20100;-66
2023/04/17 01:18:50;;;;;;;8.15;2.45;;;7.60;99.90;;;;;;5111045;28;20039;-66
2023/04/17 01:21:16;;;;;;;10.00;3.67;;;7.60;99.90;;;;;;5094279;28;20039;-65
2023/04/17 01:23:50;;;;;;;7.85;2.75;;;7.60;99.90;;;;;;5111599;28;20522;-66
2023/04/17 01:26:19;;;;;;;7.63;3.05;;;7.70;99.90;;;;;;5110961;28;20043;-65
2023/04/17 01:28:57;;;;;;;6.22;3.60;;;7.70;99.90;;;;;;5110853;28;20051;-65
2023/04/17 01:31:24;;;;;;;7.00;2.45;;;7.60;99.90;;;;;;5110470;28;20435;-65
2023/04/17 01:33:50;;;;;;;6.05;2.83;;;7.60;99.90;;;;;;5112043;28;20489;-66
2023/04/17 01:36:17;;;;;;;10.45;3.15;;;7.60;99.90;;;;;;5111830;28;20046;-66
2023/04/17 01:38:43;;;;;;;6.95;3.25;;;7.60;99.90;;;;;;5093153;28;20045;-66
2023/04/17 01:41:09;;;;;;;7.25;3.03;;;7.60;99.90;;;;;;5110906;28;20075;-66
2023/04/17 01:43:38;;;;;;;11.48;3.00;;;7.60;99.90;;;;;;5110885;28;20031;-65
2023/04/17 01:46:04;;;;;;;6.72;3.08;;;7.60;99.90;;;;;;5110680;28;20035;-67
2023/04/17 01:48:29;;;;;;;6.95;2.55;;;7.60;99.90;;;;;;5093601;28;20487;-66
2023/04/17 01:50:55;;;;;;;10.20;3.17;;;7.60;99.90;;;;;;5109815;28;20039;-66
2023/04/17 01:53:21;;;;;;;13.32;2.55;;;7.60;99.90;;;;;;5111533;28;20123;-66
2023/04/17 01:55:46;;;;;;;7.72;2.97;;;7.60;99.90;;;;;;5110289;28;20074;-66
2023/04/17 01:58:12;;;;;;;5.93;2.17;;;7.60;99.90;;;;;;5109667;28;20048;-66
2023/04/17 02:00:38;;;;;;;5.88;2.45;;;7.60;99.90;;;;;;5110272;28;20044;-66
2023/04/17 02:03:04;;;;;;;7.03;2.55;;;7.60;99.90;;;;;;5110468;28;20031;-66
2023/04/17 02:05:30;;;;;;;6.00;2.83;;;7.60;99.90;;;;;;5109729;28;20078;-66
2023/04/17 02:07:56;;;;;;;13.43;4.20;;;7.70;99.90;;;;;;5110193;28;20071;-66
2023/04/17 02:10:22;;;;;;;8.15;3.25;;;7.60;99.90;;;;;;5109895;28;20062;-66
2023/04/17 02:12:48;;;;;;;7.93;3.25;;;7.60;99.90;;;;;;5109482;28;20046;-66
2023/04/17 02:15:13;;;;;;;12.63;3.53;;;7.60;99.90;;;;;;5110370;28;20046;-66
2023/04/17 02:17:39;;;;;;;10.45;3.72;;;7.60;99.90;;;;;;5110029;28;20040;-66
2023/04/17 02:20:07;;;;;;;6.57;3.10;;;7.60;99.90;;;;;;5109379;28;20090;-65
2023/04/17 02:22:33;;;;;;;6.20;2.88;;;7.60;99.90;;;;;;5109827;28;20092;-66
2023/04/17 02:24:59;;;;;;;7.47;3.20;;;7.60;99.90;;;;;;5111300;28;20032;-65
2023/04/17 02:27:25;;;;;;;6.78;3.10;;;7.60;99.90;;;;;;5109663;28;20513;-66
2023/04/17 02:29:51;;;;;;;3.47;1.85;;;7.60;99.90;;;;;;5109843;28;20067;-66
2023/04/17 02:32:17;;;;;;;7.40;2.40;;;7.60;99.90;;;;;;5092747;28;20073;-66
2023/04/17 02:34:43;;;;;;;7.80;3.28;;;7.60;99.90;;;;;;5092431;28;20092;-66
2023/04/17 02:37:09;;;;;;;10.43;2.75;;;7.60;99.90;;;;;;5092703;28;20043;-65
2023/04/17 02:39:35;;;;;;;5.50;2.55;;;7.60;99.90;;;;;;5109051;28;20046;-66
2023/04/17 02:42:01;;;;;;;9.55;3.03;;;7.60;99.90;;;;;;5109639;28;20051;-66
2023/04/17 02:44:27;;;;;;;8.80;3.85;;;7.60;99.90;;;;;;5109530;28;20100;-66
2023/04/17 02:46:53;;;;;;;7.60;2.75;;;7.60;99.90;;;;;;5108990;28;20131;-65
2023/04/17 02:49:20;;;;;;;8.73;4.03;;;7.60;99.90;;;;;;5110870;28;20119;-66
2023/04/17 02:51:46;;;;;;;12.68;4.22;;;7.60;99.90;;;;;;5109608;28;20237;-66
2023/04/17 02:54:12;;;;;;;7.22;2.58;;;7.60;99.90;;;;;;5109505;28;20047;-67
2023/04/17 02:56:38;;;;;;;8.35;3.65;;;7.60;99.90;;;;;;5115158;28;20035;-66
2023/04/17 02:59:04;;;;;;;6.18;2.85;;;7.50;99.90;;;;;;5115183;28;20036;-66
2023/04/17 03:01:29;;;;;;;12.10;2.78;;;7.60;99.90;;;;;;5096220;28;20084;-66
2023/04/17 03:03:55;;;;;;;4.30;2.05;;;7.50;99.90;;;;;;5096617;28;20754;-66
2023/04/17 03:06:22;;;;;;;5.82;3.22;;;7.50;99.90;;;;;;5114953;28;20096;-66
2023/04/17 03:08:49;;;;;;;4.72;2.47;;;7.50;99.90;;;;;;5096165;28;20075;-66
2023/04/17 03:11:15;;;;;;;9.20;3.10;;;7.50;99.90;;;;;;5114859;28;20044;-66
2023/04/17 03:13:40;;;;;;;9.75;3.03;;;7.50;99.90;;;;;;5113498;28;20047;-66
2023/04/17 03:16:06;;;;;;;6.20;2.78;;;7.50;99.90;;;;;;5114148;28;20151;-66
2023/04/17 03:18:34;;;;;;;7.43;3.35;;;7.50;99.90;;;;;;5113602;28;20096;-66
2023/04/17 03:21:00;;;;;;;6.40;2.60;;;7.40;99.90;;;;;;5113619;28;20047;-66
2023/04/17 03:23:26;;;;;;;6.45;3.33;;;7.50;99.90;;;;;;5112677;28;20051;-66
2023/04/17 03:25:52;;;;;;;6.53;2.50;;;7.40;99.90;;;;;;5113152;28;20067;-66
2023/04/17 03:28:17;;;;;;;12.95;3.35;;;7.40;99.90;;;;;;5113300;28;20039;-66
2023/04/17 03:30:43;;;;;;;6.78;2.40;;;7.40;99.90;;;;;;5113766;28;20039;-66
2023/04/17 03:33:09;;;;;;;6.47;2.78;;;7.40;99.90;;;;;;5113128;28;20043;-66
2023/04/17 03:35:36;;;;;;;7.50;3.17;;;7.40;99.90;;;;;;5112754;28;20036;-66
2023/04/17 03:38:02;;;;;;;8.00;2.80;;;7.40;99.90;;;;;;5096088;28;20489;-66
2023/04/17 03:40:27;;;;;;;6.68;2.63;;;7.40;99.90;;;;;;5114421;28;20069;-66
2023/04/17 03:42:53;;;;;;;7.68;3.70;;;7.40;99.90;;;;;;5113655;28;20520;-67
2023/04/17 03:45:19;;;;;;;9.02;2.88;;;7.40;99.90;;;;;;5113013;28;20046;-66
2023/04/17 03:47:46;;;;;;;5.68;2.67;;;7.40;99.90;;;;;;5112896;28;20043;-66
2023/04/17 03:50:12;;;;;;;5.45;2.33;;;7.40;99.90;;;;;;5095318;28;20173;-66
2023/04/17 03:52:38;;;;;;;7.25;3.63;;;7.40;99.90;;;;;;5112781;28;20122;-66
2023/04/17 03:55:04;;;;;;;5.57;2.13;;;7.40;99.90;;;;;;5113097;28;20035;-66
2023/04/17 03:57:30;;;;;;;7.93;2.95;;;7.30;99.90;;;;;;5113393;28;20040;-66
2023/04/17 03:59:56;;;;;;;7.38;3.72;;;7.40;99.90;;;;;;5112696;28;20043;-67
2023/04/17 04:02:21;;;;;;;4.63;1.85;;;7.40;99.90;;;;;;5114033;28;20051;-66
2023/04/17 04:04:49;;;;;;;8.70;3.17;;;7.40;99.90;;;;;;5112883;28;20505;-66
2023/04/17 04:07:15;;;;;;;6.93;2.75;;;7.40;99.90;;;;;;5113734;28;20040;-66
2023/04/17 04:09:41;;;;;;;5.00;2.65;;;7.30;99.90;;;;;;5095207;28;20051;-66
2023/04/17 04:12:07;;;;;;;6.50;2.72;;;7.40;99.90;;;;;;5111777;28;20052;-66
2023/04/17 04:14:33;;;;;;;4.28;2.05;;;7.30;99.90;;;;;;5113661;27;20530;-67
2023/04/17 04:16:59;;;;;;;5.93;3.08;;;7.30;99.90;;;;;;5113786;28;20118;-66
2023/04/17 04:19:25;;;;;;;4.43;2.47;;;7.30;99.90;;;;;;5094604;28;20453;-66
2023/04/17 04:21:52;;;;;;;9.80;2.47;;;7.30;99.90;;;;;;5112227;28;20126;-66
2023/04/17 04:24:19;;;;;;;5.57;2.42;;;7.30;99.90;;;;;;5113471;28;20082;-66
2023/04/17 04:26:48;;;;;;;7.45;2.45;;;7.30;99.90;;;;;;5112964;28;20035;-66
2023/04/17 04:29:15;;;;;;;9.18;3.50;;;7.30;99.90;;;;;;5111987;28;20036;-66
2023/04/17 04:31:41;;;;;;;8.18;2.78;;;7.30;99.90;;;;;;5111733;28;20126;-66
2023/04/17 04:34:08;;;;;;;5.25;2.13;;;7.30;99.90;;;;;;5113248;28;20049;-66
2023/04/17 04:36:49;;;;;;;9.60;4.25;;;7.30;99.90;;;;;;5113173;28;20055;-66
2023/04/17 04:39:20;;;;;;;10.70;3.63;;;7.30;99.90;;;;;;5094682;28;20036;-66
2023/04/17 04:41:50;;;;;;;6.90;3.38;;;7.30;99.90;;;;;;5112160;28;20145;-65
2023/04/17 04:44:19;;;;;;;11.70;3.30;;;7.30;99.90;;;;;;5111705;28;20070;-66
2023/04/17 04:46:45;;;;;;;7.37;2.47;;;7.30;99.90;;;;;;5111452;28;20047;-66
2023/04/17 04:49:12;;;;;;;9.63;3.33;;;7.40;99.90;;;;;;5113098;28;20063;-66
2023/04/17 04:51:38;;;;;;;8.07;2.53;;;7.40;99.90;;;;;;5112953;27;20032;-66
2023/04/17 04:54:05;;;;;;;8.43;3.45;;;7.30;99.90;;;;;;5112230;28;20044;-66
2023/04/17 04:56:31;;;;;;;12.50;4.03;;;7.30;99.90;;;;;;5111782;28;20031;-66
2023/04/17 04:58:56;;;;;;;8.63;3.78;;;7.30;99.90;;;;;;5112716;27;20392;-66
2023/04/17 05:01:23;;;;;;;12.70;3.25;;;7.30;99.90;;;;;;5110829;28;20055;-66
2023/04/17 05:03:49;;;;;;;6.97;3.08;;;7.30;99.90;;;;;;5112580;28;20058;-66
2023/04/17 05:06:14;;;;;;;12.15;3.45;;;7.30;99.90;;;;;;5111615;28;20040;-66
2023/04/17 05:08:40;;;;;;;6.25;1.83;;;7.30;99.90;;;;;;5110634;28;20528;-66
2023/04/17 05:11:06;;;;;;;6.95;3.17;;;7.30;99.90;;;;;;5111252;28;20138;-66
2023/04/17 05:13:32;;;;;;;7.05;2.65;;;7.30;99.90;;;;;;5112704;28;20035;-66
2023/04/17 05:15:58;;;;;;;6.72;3.22;;;7.30;99.90;;;;;;5111110;28;20389;-67
2023/04/17 05:18:24;;;;;;;6.45;3.08;;;7.30;99.90;;;;;;5111720;28;20119;-66
2023/04/17 05:20:50;;;;;;;10.55;3.47;;;7.30;99.90;;;;;;5110389;28;20043;-66
2023/04/17 05:23:20;;;;;;;8.50;2.85;;;7.30;99.90;;;;;;5111089;28;20036;-65
2023/04/17 05:25:46;;;;;;;7.80;3.33;;;7.30;99.90;;;;;;5111252;28;20042;-66
2023/04/17 05:28:11;;;;;;;5.03;2.63;;;7.40;99.90;;;;;;5110579;28;20036;-66
2023/04/17 05:30:37;;;;;;;8.13;2.88;;;7.40;99.90;;;;;;5112272;28;20036;-66
2023/04/17 05:33:03;;;;;;;8.25;3.55;;;7.40;99.90;;;;;;5110896;28;20044;-66
2023/04/17 05:35:29;;;;;;;8.35;2.78;;;7.30;99.90;;;;;;5093227;28;20075;-66
2023/04/17 05:37:55;;;;;;;4.85;2.42;;;7.30;99.90;;;;;;5093634;28;20122;-66
2023/04/17 05:40:21;;;;;;;9.60;3.28;;;7.30;99.90;;;;;;5112190;28;20035;-66
2023/04/17 05:42:46;;;;;;;7.22;2.47;;;7.30;99.90;;;;;;5110244;28;20040;-66
2023/04/17 05:45:13;;;;;;;10.65;3.20;;;7.30;99.90;;;;;;5110972;28;20140;-66
2023/04/17 05:47:40;;;;;;;8.52;4.30;;;7.40;99.90;;;;;;5110515;28;20069;-66
2023/04/17 05:50:07;;;;;;;7.28;2.92;;;7.40;99.90;;;;;;5110098;28;20039;-66
2023/04/17 05:52:33;;;;;;;5.70;2.38;;;7.30;99.90;;;;;;5093540;28;20039;-66
2023/04/17 05:54:59;;;;;;;6.47;2.75;;;7.40;99.90;;;;;;5110434;28;20042;-66
2023/04/17 05:57:24;;;;;;;8.10;2.88;;;7.40;99.90;;;;;;5111147;28;20046;-66
2023/04/17 05:59:50;;;;;;;6.85;2.38;;;7.40;99.90;;;;;;5110408;28;20044;-66
2023/04/17 06:02:16;;;;;;;7.00;2.72;;;7.40;99.90;;;;;;5111477;28;20039;-66
2023/04/17 06:04:43;;;;;;;7.28;3.20;;;7.50;99.90;;;;;;5109262;28;20044;-66
2023/04/17 06:07:09;;;;;;;9.57;3.00;;;7.60;99.90;;;;;;5104919;28;20042;-66
2023/04/17 06:09:36;;;;;;;5.53;2.38;;;7.60;99.90;;;;;;5089013;28;20052;-66
2023/04/17 06:12:03;;;;;;;7.43;2.97;;;7.60;99.90;;;;;;5090250;28;20028;-66
2023/04/17 06:14:29;;;;;;;8.10;3.47;;;7.60;99.90;;;;;;5072782;28;20086;-66
2023/04/17 06:16:56;;;;;;;8.43;3.17;;;7.60;99.90;;;;;;5089226;28;20552;-66
2023/04/17 06:19:23;;;;;;;6.22;2.40;;;7.60;99.90;;;;;;5090771;28;20048;-66
2023/04/17 06:21:49;;;;;;;5.55;2.08;;;7.60;99.90;;;;;;5091067;28;20039;-66
2023/04/17 06:24:15;;;;;;;6.78;2.40;;;7.70;99.90;;;;;;5088922;28;20043;-66
2023/04/17 06:26:41;;;;;;;6.20;2.60;;;7.70;99.90;;;;;;5089798;28;20440;-66
2023/04/17 06:29:07;;;;;;;8.65;3.65;;;7.70;99.90;;;;;;5072521;28;20039;-66
2023/04/17 06:31:33;;;;;;;12.57;3.47;;;7.70;99.90;;;;;;5089215;28;20032;-65
2023/04/17 06:33:59;;;;;;;5.57;2.63;;;7.80;99.90;;;;;;5072499;28;20520;-66
2023/04/17 06:36:26;;;;;;;9.43;3.35;;;7.80;99.90;;;;;;5089299;28;20062;-65
2023/04/17 06:38:52;;;;;;;5.38;2.10;;;7.80;99.90;;;;;;5090180;28;20043;-66
2023/04/17 06:41:17;;;;;;;6.30;2.63;;;7.80;99.90;;;;;;5089354;28;20047;-66
2023/04/17 06:43:43;;;;;;;4.38;2.58;;;7.90;99.90;;;;;;5090475;28;20044;-66
2023/04/17 06:46:09;;;;;;;6.00;3.00;;;7.90;99.90;;;;;;5088644;28;20039;-67
2023/04/17 06:48:35;;;;;;;8.85;2.80;;;7.90;99.90;;;;;;5090579;28;20028;-66
2023/04/17 06:51:01;;;;;;;4.20;2.22;;;7.90;99.90;;;;;;5089328;28;20527;-66
2023/04/17 06:53:26;;;;;;;8.02;3.08;;;7.90;99.90;;;;;;5098600;28;20049;-66
2023/04/17 06:55:53;;;;;;;5.63;2.72;;;7.90;99.90;;;;;;5110803;28;20093;-66
2023/04/17 06:58:19;;;;;;;6.75;2.03;;;7.90;99.90;;;;;;5109725;28;20124;-66
2023/04/17 07:00:45;;;;;;;4.47;2.42;;;8.00;99.90;;;;;;5109032;28;20502;-66
2023/04/17 07:03:12;;;;;;;4.72;1.95;;;8.10;99.90;;;;;;5110963;28;20094;-65
2023/04/17 07:05:38;;;;;;;7.68;2.75;;;8.10;99.90;;;;;;5108900;28;20500;-65
2023/04/17 07:08:04;;;;;;;6.03;2.83;;;8.20;99.90;;;;;;5109709;28;20119;-66
2023/04/17 07:10:30;;;;;;;7.68;3.53;;;8.20;99.90;;;;;;5110504;28;20056;-65
2023/04/17 07:12:56;;;;;;;8.52;3.83;;;8.30;99.90;;;;;;5108775;28;20043;-66
2023/04/17 07:15:22;;;;;;;7.57;3.42;;;8.40;99.90;;;;;;5109557;28;20092;-67
2023/04/17 07:17:47;;;;;;;9.40;3.05;;;8.30;99.90;;;;;;5109283;28;20497;-66
2023/04/17 07:20:13;;;;;;;8.05;3.22;;;8.30;99.90;;;;;;5108824;28;20036;-66
2023/04/17 07:22:39;;;;;;;5.65;2.58;;;8.40;99.90;;;;;;5109323;28;20388;-65
2023/04/17 07:25:05;;;;;;;6.30;3.13;;;8.30;99.90;;;;;;5109139;28;20044;-65
2023/04/17 07:27:32;;;;;;;6.97;3.00;;;8.40;99.90;;;;;;5108658;28;20392;-66
2023/04/17 07:29:57;;;;;;;11.90;3.33;;;8.40;99.90;;;;;;5110390;28;20044;-66
2023/04/17 07:32:23;;;;;;;5.72;2.38;;;8.40;99.90;;;;;;5109042;28;20051;-66
2023/04/17 07:34:49;;;;;;;7.60;2.63;;;8.40;99.90;;;;;;5108769;28;20092;-66
2023/04/17 07:37:15;;;;;;;7.78;3.53;;;8.50;99.90;;;;;;5109379;28;20036;-66
2023/04/17 07:39:41;;;;;;;6.40;2.45;;;8.60;99.90;;;;;;5109094;28;20515;-66
2023/04/17 07:42:07;;;;;;;8.23;2.70;;;8.60;99.90;;;;;;5112157;28;20035;-66
2023/04/17 07:44:38;;;;;;;10.77;3.53;;;8.60;99.90;;;;;;5112914;28;20082;-66
2023/04/17 07:47:03;;;;;;;12.30;3.60;;;8.70;99.90;;;;;;5096088;28;20377;-66
2023/04/17 07:49:29;;;;;;;8.90;3.65;;;8.70;99.90;;;;;;5112204;28;20122;-66
2023/04/17 07:51:55;;;;;;;9.07;3.95;;;8.80;99.90;;;;;;5113015;28;20110;-66
2023/04/17 07:54:21;;;;;;;8.68;3.45;;;8.80;99.90;;;;;;5109768;28;20032;-66
2023/04/17 07:56:48;;;;;;;11.40;4.13;;;8.80;99.90;;;;;;5091710;28;20044;-66
2023/04/17 07:59:15;;;;;;;9.35;3.50;;;8.90;99.90;;;;;;5075492;28;20043;-66
2023/04/17 08:01:42;;;;;;;6.95;3.22;;;8.90;99.90;;;;;;5074707;28;20040;-66
2023/04/17 08:04:08;;;;;;;10.55;3.78;;;8.90;99.90;;;;;;5092170;28;20105;-65
2023/04/17 08:06:33;;;;;;;3.60;2.10;;;8.90;99.90;;;;;;5093476;28;20036;-65
2023/04/17 08:09:01;;;;;;;6.82;3.03;;;9.00;99.90;;;;;;5091523;28;20048;-67
2023/04/17 08:11:27;;;;;;;11.38;4.90;;;9.10;99.90;;;;;;5092246;28;20032;-66
2023/04/17 08:13:54;;;;;;;10.15;3.78;;;9.20;99.90;;;;;;5092016;28;20047;-66
2023/04/17 08:16:20;;;;;;;4.35;2.13;;;9.30;99.90;;;;;;5091240;28;20051;-66
2023/04/17 08:18:46;;;;;;;5.85;2.92;;;9.30;99.90;;;;;;5093332;28;20055;-66
2023/04/17 08:21:12;;;;;;;9.57;3.00;;;9.30;99.90;;;;;;5093469;28;20044;-66
2023/04/17 08:23:39;;;;;;;6.68;3.13;;;9.30;99.90;;;;;;5091374;28;20040;-65
2023/04/17 08:26:05;;;;;;;8.27;4.13;;;9.40;99.90;;;;;;5093139;28;20040;-66
2023/04/17 08:28:31;;;;;;;9.85;3.75;;;9.50;99.90;;;;;;5074657;28;20047;-66
2023/04/17 08:30:56;;;;;;;10.43;4.07;;;9.50;99.90;;;;;;5091076;28;20059;-65
2023/04/17 08:33:22;;;;;;;5.70;2.63;;;9.60;99.90;;;;;;5074828;28;20040;-66
2023/04/17 08:35:48;;;;;;;8.55;3.85;;;9.80;99.90;;;;;;5091636;28;20097;-66
2023/04/17 08:38:14;;;;;;;6.93;3.33;;;9.90;99.90;;;;;;5074051;28;20059;-66
2023/04/17 08:40:41;;;;;;;10.88;4.20;;;10.00;99.90;;;;;;5091531;28;20119;-65
2023/04/17 08:43:14;;;;;;;6.35;2.75;;;10.20;99.90;;;;;;5092657;28;20036;-66
2023/04/17 08:45:48;;;;;;;7.22;3.53;;;10.30;99.90;;;;;;5090823;28;20044;-66
2023/04/17 08:48:14;;;;;;;8.50;2.75;;;10.30;99.90;;;;;;5074768;28;20043;-65
2023/04/17 08:50:45;;;;;;;7.50;3.97;;;10.40;99.90;;;;;;5090705;28;20050;-66
2023/04/17 08:53:10;;;;;;;9.10;4.03;;;10.60;99.90;;;;;;5090051;28;20039;-65
2023/04/17 08:55:36;;;;;;;8.52;3.38;;;10.70;99.90;;;;;;5092546;28;20048;-66
2023/04/17 08:58:03;;;;;;;7.88;3.90;;;10.80;99.90;;;;;;5073949;28;20059;-65
2023/04/17 09:00:38;;;;;;;11.40;4.22;;;10.80;99.90;;;;;;5091180;28;20131;-65
2023/04/17 09:03:09;;;;;;;9.57;4.07;;;10.90;99.90;;;;;;5074294;28;20044;-66
2023/04/17 09:05:37;;;;;;;9.68;4.45;;;11.10;99.90;;;;;;5090624;28;20036;-66
2023/04/17 09:08:20;;;;;;;7.25;3.38;;;11.60;99.90;;;;;;5090898;28;20036;-65
2023/04/17 09:10:51;;;;;;;7.88;3.50;;;11.90;99.90;;;;;;5090715;28;20070;-65
2023/04/17 09:13:19;;;;;;;5.75;3.03;;;12.00;99.90;;;;;;5091348;28;20051;-66
2023/04/17 09:15:46;;;;;;;10.45;3.97;;;12.10;99.90;;;;;;5090915;28;20474;-65
2023/04/17 09:18:24;;;;;;;8.77;3.20;;;12.30;99.90;;;;;;5090959;28;20419;-66
2023/04/17 09:20:50;;;;;;;6.95;3.55;;;12.70;99.90;;;;;;5090009;28;20048;-65
2023/04/17 09:23:16;;;;;;;10.80;4.00;;;13.00;99.90;;;;;;5090679;28;20055;-66
2023/04/17 09:25:42;;;;;;;10.93;4.05;;;13.10;99.90;;;;;;5073408;28;20028;-65
2023/04/17 09:28:13;;;;;;;9.73;3.63;;;13.40;99.90;;;;;;5092024;28;20466;-66
2023/04/17 09:30:42;;;;;;;7.13;3.95;;;14.10;99.90;;;;;;5090602;28;20047;-66
2023/04/17 09:33:09;;;;;;;8.32;4.47;;;14.60;99.90;;;;;;5089918;28;20036;-65
2023/04/17 09:35:37;;;;;;;12.68;4.43;;;14.70;99.90;;;;;;5091901;28;20086;-65
2023/04/17 09:38:03;;;;;;;11.30;3.58;;;14.70;99.90;;;;;;5090367;28;20516;-65
2023/04/17 09:40:37;;;;;;;9.70;3.55;;;14.70;99.90;;;;;;5091207;28;20047;-66
2023/04/17 09:43:05;;;;;;;9.95;4.60;;;14.80;99.90;;;;;;5091680;28;20071;-67
2023/04/17 09:45:35;;;;;;;10.63;4.22;;;15.00;99.90;;;;;;5091554;28;20032;-65
2023/04/17 09:48:14;;;;;;;6.25;3.33;;;15.40;99.90;;;;;;5072762;28;20466;-65
2023/04/17 09:50:40;;;;;;;8.97;3.87;;;16.10;99.90;;;;;;5090166;28;20501;-66
2023/04/17 09:53:07;;;;;;;8.95;3.63;;;16.60;99.90;;;;;;5091508;28;20286;-65
2023/04/17 09:55:35;;;;;;;10.43;4.57;;;16.60;99.90;;;;;;5090575;28;20044;-65
2023/04/17 09:58:03;;;;;;;9.40;4.32;;;16.30;99.90;;;;;;5089996;28;20122;-65
2023/04/17 10:00:30;;;;;;;12.27;5.03;;;16.40;99.90;;;;;;5091149;28;20501;-65
2023/04/17 10:02:59;;;;;;;11.23;4.47;;;16.70;99.90;;;;;;5072190;28;20394;-67
2023/04/17 10:05:27;;;;;;;7.15;3.28;;;17.10;99.90;;;;;;5090005;28;20039;-65
2023/04/17 10:07:54;;;;;;;9.13;4.27;;;17.50;99.90;;;;;;5089368;28;20084;-66
2023/04/17 10:10:23;;;;;;;8.73;4.35;;;18.10;99.90;;;;;;5089790;28;20052;-65
2023/04/17 10:12:50;;;;;;;9.23;4.05;;;18.60;99.90;;;;;;5089822;28;20505;-65
2023/04/17 10:15:18;;;;;;;11.68;4.65;;;18.80;99.90;;;;;;5072498;28;20067;-65
2023/04/17 10:17:46;;;;;;;7.75;3.55;;;18.90;99.90;;;;;;5072785;28;20489;-65
2023/04/17 10:20:18;;;;;;;8.50;3.67;;;19.00;99.90;;;;;;5089630;28;20073;-65
2023/04/17 10:22:48;;;;;;;11.18;4.50;;;19.10;99.90;;;;;;5088955;28;20048;-65
2023/04/17 10:25:13;;;;;;;9.07;4.30;;;18.80;99.90;;;;;;5072528;28;20040;-64
2023/04/17 10:27:39;;;;;;;7.60;4.32;;;18.50;99.90;;;;;;5089758;28;20046;-65
2023/04/17 10:30:11;;;;;;;6.78;4.03;;;18.10;99.90;;;;;;5090037;28;20047;-65
2023/04/17 10:32:44;;;;;;;7.13;4.38;;;17.80;99.90;;;;;;5089511;28;20040;-65
2023/04/17 10:35:16;;;;;;;7.28;4.22;;;17.50;99.90;;;;;;5089664;28;20563;-65
2023/04/17 10:37:49;;;;;;;6.25;3.53;;;17.80;99.90;;;;;;5089915;28;20462;-65
2023/04/17 10:40:38;;;;;;;10.70;4.68;;;18.10;99.90;;;;;;5090548;28;20169;-65
2023/04/17 10:43:13;;;;;;;6.95;3.60;;;18.60;99.90;;;;;;5064042;28;20135;-65
2023/04/17 10:45:58;;;;;;;10.13;3.95;;;19.10;99.90;;;;;;5089284;28;20048;-65
2023/04/17 10:48:46;;;;;;;7.03;3.75;;;19.70;99.90;;;;;;5090296;28;20082;-65
2023/04/17 10:51:25;;;;;;;8.02;4.45;;;19.50;99.90;;;;;;5071896;28;20040;-65
2023/04/17 10:53:57;;;;;;;;;;;19.20;99.90;;;;;;5089700;28;20549;-65
2023/04/17 10:56:41;;;;;;;7.45;3.58;;;19.20;99.90;;;;;;5089236;28;19916;-65
2023/04/17 10:59:12;;;;;;;10.30;4.20;;;19.10;99.90;;;;;;5089224;28;20157;-65
2023/04/17 11:01:47;;;;;;;5.32;3.15;;;18.90;99.90;;;;;;5089228;28;20079;-65
2023/04/17 11:04:21;;;;;;;7.47;3.85;;;19.20;99.90;;;;;;5071739;28;20177;-65
2023/04/17 11:06:47;;;;;;;8.55;4.22;;;19.30;99.90;;;;;;5089070;28;20082;-65
2023/04/17 11:09:14;;;;;;;6.68;3.53;;;19.30;99.90;;;;;;5089042;28;20585;-65
2023/04/17 11:11:42;;;;;;;7.40;3.88;;;19.60;99.90;;;;;;5070857;28;20048;-65
2023/04/17 11:14:19;;;;;;;6.80;3.63;;;19.60;99.90;;;;;;5089203;28;20602;-65
2023/04/17 11:16:47;;;;;;;6.82;3.72;;;19.70;99.90;;;;;;5091202;28;20044;-65
2023/04/17 11:19:18;;;;;;;7.07;3.13;;;19.90;99.90;;;;;;5091978;28;20129;-65
2023/04/17 11:21:46;;;;;;;5.32;2.92;;;19.90;99.90;;;;;;5076107;28;20063;-64
2023/04/17 11:24:12;;;;;;;6.75;3.55;;;19.80;99.90;;;;;;5075829;28;20371;-64
2023/04/17 11:26:45;;;;;;;6.43;3.38;;;19.80;99.90;;;;;;5093599;28;20039;-64
2023/04/17 11:29:15;;;;;;;7.05;3.10;;;20.10;99.90;;;;;;5092981;28;20040;-65
2023/04/17 11:31:42;;;;;;;5.78;3.00;;;20.50;99.90;;;;;;5092082;28;20115;-64
2023/04/17 11:34:08;;;;;;;5.93;3.17;;;20.40;99.90;;;;;;5093435;28;20477;-65
2023/04/17 11:36:34;;;;;;;6.95;3.13;;;20.20;99.90;;;;;;5092733;28;20050;-65
2023/04/17 11:39:00;;;;;;;5.13;2.55;;;20.10;99.90;;;;;;5092106;28;20119;-64
2023/04/17 11:41:41;;;;;;;4.25;2.72;;;20.10;99.90;;;;;;5075618;28;20082;-65
2023/04/17 11:44:15;;;;;;;5.40;3.38;;;20.20;99.90;;;;;;5092747;28;20080;-64
2023/04/17 11:46:41;;;;;;;7.50;3.70;;;20.50;99.90;;;;;;5091834;28;20539;-64
2023/04/17 11:49:07;;;;;;;6.82;3.40;;;20.60;99.90;;;;;;5092753;28;20040;-64
2023/04/17 11:51:34;;;;;;;4.72;3.22;;;20.50;99.90;;;;;;5092481;28;20044;-64
2023/04/17 11:54:00;;;;;;;4.97;3.28;;;20.40;99.90;;;;;;5090907;28;20086;-64
2023/04/17 11:56:29;;;;;;;3.58;2.15;;;20.10;99.90;;;;;;5092743;28;20063;-65
2023/04/17 11:58:56;;;;;;;8.07;3.58;;;19.70;99.90;;;;;;5091456;28;20044;-64
2023/04/17 12:01:24;;;;;;;5.85;3.17;;;19.50;99.90;;;;;;5091889;28;20046;-64
2023/04/17 12:03:58;;;;;;;6.40;3.42;;;19.60;99.90;;;;;;5091277;28;20039;-64
2023/04/17 12:06:35;;;;;;;6.25;2.97;;;19.40;99.90;;;;;;5091133;28;20036;-64
2023/04/17 12:09:01;;;;;;;5.55;2.70;;;19.20;99.90;;;;;;5074117;28;20052;-64
2023/04/17 12:11:34;;;;;;;6.45;3.20;;;19.20;99.90;;;;;;5091044;28;20040;-64
2023/04/17 12:14:01;;;;;;;8.10;3.03;;;19.20;99.90;;;;;;5091916;28;20051;-64
2023/04/17 12:16:28;;;;;;;6.43;3.05;;;19.30;99.90;;;;;;5090941;28;20138;-64
2023/04/17 12:18:55;;;;;;;6.20;2.65;;;19.60;99.90;;;;;;5092467;28;20048;-64
2023/04/17 12:21:22;;;;;;;5.38;3.08;;;19.70;99.90;;;;;;5091446;28;20040;-64
2023/04/17 12:23:48;;;;;;;6.40;2.97;;;19.80;99.90;;;;;;5091341;28;20036;-64
2023/04/17 12:26:15;;;;;;;4.88;2.35;;;20.10;99.90;;;;;;5092613;28;20031;-65
2023/04/17 12:28:41;;;;;;;4.97;2.63;;;20.20;99.90;;;;;;5092651;28;20047;-64
2023/04/17 12:31:07;;;;;;;4.82;2.33;;;20.00;99.90;;;;;;5075084;28;20036;-64
2023/04/17 12:33:33;;;;;;;5.72;2.50;;;19.50;99.90;;;;;;5091577;28;20532;-65
2023/04/17 12:36:03;;;;;;;7.88;2.85;;;19.20;99.90;;;;;;5091039;28;20081;-64
2023/04/17 12:38:30;;;;;;;7.63;3.03;;;18.90;99.90;;;;;;5091627;28;20048;-64
2023/04/17 12:40:56;;;;;;;6.70;2.88;;;18.80;99.90;;;;;;5092881;28;20035;-64
2023/04/17 12:43:22;;;;;;;5.05;2.85;;;18.70;99.90;;;;;;5090969;28;20398;-64
2023/04/17 12:45:48;;;;;;;4.45;2.60;;;18.60;99.90;;;;;;5092858;28;20038;-64
2023/04/17 12:48:14;;;;;;;4.53;2.75;;;18.60;99.90;;;;;;5092787;28;20119;-64
2023/04/17 12:50:42;;;;;;;4.50;2.45;;;18.60;99.90;;;;;;5092100;28;20115;-64
2023/04/17 12:53:10;;;;;;;6.25;2.75;;;18.60;99.90;;;;;;5092365;28;20119;-63